sensor_id;sensor_type;location;lat;lon;timestamp;pressure;altitude;pressure_sealevel;temperature;humidity
44140;BME280;29803;51.048;4.686;2023-08-31T00:02:15;100914.88;;;11.60;100.00
44140;BME280;29803;51.048;4.686;2023-08-31T00:04:45;100919.22;;;11.61;100.00
44140;BME280;29803;51.048;4.686;2023-08-31T00:07:16;100921.25;;;11.59;100.00
44140;BME280;29803;51.048;4.686;2023-08-31T00:09:46;100919.88;;;11.63;100.00
44140;BME280;29803;51.048;4.686;2023-08-31T00:12:16;100918.22;;;11.62;100.00
44140;BME280;29803;51.048;4.686;2023-08-31T00:14:47;100916.72;;;11.60;100.00
44140;BME280;29803;51.048;4.686;2023-08-31T00:17:18;100918.41;;;11.61;100.00
44140;BME280;29803;51.048;4.686;2023-08-31T00:19:48;100912.34;;;11.59;100.00
44140;BME280;29803;51.048;4.686;2023-08-31T00:22:19;100912.53;;;11.57;100.00
44140;BME280;29803;51.048;4.686;2023-08-31T00:24:49;100908.81;;;11.58;100.00
44140;BME280;29803;51.048;4.686;2023-08-31T00:27:21;100907.97;;;11.58;100.00
44140;BME280;29803;51.048;4.686;2023-08-31T00:29:51;100910.34;;;11.61;100.00
44140;BME280;29803;51.048;4.686;2023-08-31T00:32:22;100911.81;;;11.63;100.00
44140;BME280;29803;51.048;4.686;2023-08-31T00:34:53;100909.31;;;11.62;100.00
44140;BME280;29803;51.048;4.686;2023-08-31T00:37:24;100907.31;;;11.56;100.00
44140;BME280;29803;51.048;4.686;2023-08-31T00:39:54;100907.47;;;11.54;100.00
44140;BME280;29803;51.048;4.686;2023-08-31T00:42:25;100906.63;;;11.54;100.00
44140;BME280;29803;51.048;4.686;2023-08-31T00:44:56;100907.00;;;11.51;100.00
44140;BME280;29803;51.048;4.686;2023-08-31T00:47:27;100914.38;;;11.49;100.00
44140;BME280;29803;51.048;4.686;2023-08-31T00:49:57;100905.34;;;11.50;100.00
44140;BME280;29803;51.048;4.686;2023-08-31T00:52:28;100915.22;;;11.49;100.00
44140;BME280;29803;51.048;4.686;2023-08-31T00:55:00;100902.28;;;11.53;100.00
44140;BME280;29803;51.048;4.686;2023-08-31T00:57:31;100900.78;;;11.50;100.00
44140;BME280;29803;51.048;4.686;2023-08-31T01:00:03;100902.47;;;11.51;100.00
44140;BME280;29803;51.048;4.686;2023-08-31T01:02:43;100902.78;;;11.48;100.00
44140;BME280;29803;51.048;4.686;2023-08-31T01:05:23;100902.78;;;11.48;100.00
44140;BME280;29803;51.048;4.686;2023-08-31T01:08:18;100898.44;;;11.47;100.00
44140;BME280;29803;51.048;4.686;2023-08-31T01:11:17;100896.06;;;11.44;100.00
44140;BME280;29803;51.048;4.686;2023-08-31T01:14:11;100906.16;;;11.42;100.00
44140;BME280;29803;51.048;4.686;2023-08-31T01:16:43;100905.34;;;11.41;100.00
44140;BME280;29803;51.048;4.686;2023-08-31T01:19:39;100905.50;;;11.40;100.00
44140;BME280;29803;51.048;4.686;2023-08-31T01:22:36;100906.34;;;11.40;100.00
44140;BME280;29803;51.048;4.686;2023-08-31T01:25:27;100907.69;;;11.36;100.00
44140;BME280;29803;51.048;4.686;2023-08-31T01:28:18;100912.56;;;11.33;100.00
44140;BME280;29803;51.048;4.686;2023-08-31T01:30:49;100910.69;;;11.33;100.00
44140;BME280;29803;51.048;4.686;2023-08-31T01:33:19;100912.38;;;11.34;100.00
44140;BME280;29803;51.048;4.686;2023-08-31T01:35:53;100918.75;;;11.33;100.00
44140;BME280;29803;51.048;4.686;2023-08-31T01:38:28;100913.75;;;11.30;100.00
44140;BME280;29803;51.048;4.686;2023-08-31T01:41:03;100917.28;;;11.31;100.00
44140;BME280;29803;51.048;4.686;2023-08-31T01:43:36;100911.72;;;11.32;100.00
44140;BME280;29803;51.048;4.686;2023-08-31T01:46:07;100908.38;;;11.30;100.00
44140;BME280;29803;51.048;4.686;2023-08-31T01:48:39;100909.34;;;11.29;100.00
44140;BME280;29803;51.048;4.686;2023-08-31T01:51:10;100916.94;;;11.26;100.00
44140;BME280;29803;51.048;4.686;2023-08-31T01:53:41;100912.59;;;11.25;100.00
44140;BME280;29803;51.048;4.686;2023-08-31T01:56:12;100921.47;;;11.25;100.00
44140;BME280;29803;51.048;4.686;2023-08-31T01:58:44;100919.63;;;11.26;100.00
44140;BME280;29803;51.048;4.686;2023-08-31T02:01:14;100923.31;;;11.25;100.00
44140;BME280;29803;51.048;4.686;2023-08-31T02:03:45;100922.97;;;11.28;100.00
44140;BME280;29803;51.048;4.686;2023-08-31T02:06:16;100921.13;;;11.28;100.00
44140;BME280;29803;51.048;4.686;2023-08-31T02:08:46;100926.84;;;11.25;100.00
44140;BME280;29803;51.048;4.686;2023-08-31T02:11:17;100934.22;;;11.23;100.00
44140;BME280;29803;51.048;4.686;2023-08-31T02:13:48;100925.31;;;11.23;100.00
44140;BME280;29803;51.048;4.686;2023-08-31T02:16:18;100933.19;;;11.24;100.00
44140;BME280;29803;51.048;4.686;2023-08-31T02:18:49;100942.25;;;11.23;100.00
44140;BME280;29803;51.048;4.686;2023-08-31T02:21:20;100940.78;;;11.21;100.00
44140;BME280;29803;51.048;4.686;2023-08-31T02:23:50;100940.78;;;11.21;100.00
44140;BME280;29803;51.048;4.686;2023-08-31T02:26:21;100940.09;;;11.19;100.00
44140;BME280;29803;51.048;4.686;2023-08-31T02:28:52;100939.09;;;11.20;100.00
44140;BME280;29803;51.048;4.686;2023-08-31T02:31:23;100941.28;;;11.16;100.00
44140;BME280;29803;51.048;4.686;2023-08-31T02:33:53;100939.44;;;11.17;100.00
44140;BME280;29803;51.048;4.686;2023-08-31T02:36:24;100941.09;;;11.18;100.00
44140;BME280;29803;51.048;4.686;2023-08-31T02:38:56;100938.41;;;11.18;100.00
44140;BME280;29803;51.048;4.686;2023-08-31T02:41:26;100942.94;;;11.17;100.00
44140;BME280;29803;51.048;4.686;2023-08-31T02:43:57;100943.13;;;11.15;100.00
44140;BME280;29803;51.048;4.686;2023-08-31T02:46:28;100938.06;;;11.12;100.00
44140;BME280;29803;51.048;4.686;2023-08-31T02:48:58;100935.41;;;11.12;100.00
44140;BME280;29803;51.048;4.686;2023-08-31T02:51:29;100931.88;;;11.12;100.00
44140;BME280;29803;51.048;4.686;2023-08-31T02:53:59;100941.59;;;11.13;100.00
44140;BME280;29803;51.048;4.686;2023-08-31T02:56:30;100936.75;;;11.17;100.00
44140;BME280;29803;51.048;4.686;2023-08-31T02:59:01;100942.78;;;11.19;100.00
44140;BME280;29803;51.048;4.686;2023-08-31T03:01:31;100951.34;;;11.22;100.00
44140;BME280;29803;51.048;4.686;2023-08-31T03:04:02;100943.09;;;11.24;100.00
44140;BME280;29803;51.048;4.686;2023-08-31T03:06:32;100942.97;;;11.25;100.00
44140;BME280;29803;51.048;4.686;2023-08-31T03:09:03;100935.75;;;11.26;100.00
44140;BME280;29803;51.048;4.686;2023-08-31T03:11:34;100934.72;;;11.27;100.00
44140;BME280;29803;51.048;4.686;2023-08-31T03:14:04;100940.09;;;11.27;100.00
44140;BME280;29803;51.048;4.686;2023-08-31T03:16:35;100939.91;;;11.28;100.00
44140;BME280;29803;51.048;4.686;2023-08-31T03:19:05;100938.56;;;11.24;100.00
44140;BME280;29803;51.048;4.686;2023-08-31T03:21:36;100935.03;;;11.24;100.00
44140;BME280;29803;51.048;4.686;2023-08-31T03:24:06;100933.72;;;11.20;100.00
44140;BME280;29803;51.048;4.686;2023-08-31T03:26:37;100935.22;;;11.22;100.00
44140;BME280;29803;51.048;4.686;2023-08-31T03:29:07;100936.41;;;11.20;100.00
44140;BME280;29803;51.048;4.686;2023-08-31T03:31:38;100937.41;;;11.19;100.00
44140;BME280;29803;51.048;4.686;2023-08-31T03:34:08;100942.78;;;11.19;100.00
44140;BME280;29803;51.048;4.686;2023-08-31T03:36:39;100948.00;;;11.20;100.00
44140;BME280;29803;51.048;4.686;2023-08-31T03:39:09;100946.16;;;11.21;100.00
44140;BME280;29803;51.048;4.686;2023-08-31T03:41:40;100943.47;;;11.21;100.00
44140;BME280;29803;51.048;4.686;2023-08-31T03:44:11;100948.81;;;11.21;100.00
44140;BME280;29803;51.048;4.686;2023-08-31T03:46:42;100940.91;;;11.19;100.00
44140;BME280;29803;51.048;4.686;2023-08-31T03:49:12;100939.44;;;11.17;100.00
44140;BME280;29803;51.048;4.686;2023-08-31T03:51:43;100944.63;;;11.18;100.00
44140;BME280;29803;51.048;4.686;2023-08-31T03:54:13;100953.38;;;11.20;100.00
44140;BME280;29803;51.048;4.686;2023-08-31T03:56:44;100947.81;;;11.22;100.00
44140;BME280;29803;51.048;4.686;2023-08-31T03:59:14;100958.06;;;11.26;100.00
44140;BME280;29803;51.048;4.686;2023-08-31T04:01:45;100947.63;;;11.23;100.00
44140;BME280;29803;51.048;4.686;2023-08-31T04:04:15;100952.19;;;11.23;100.00
44140;BME280;29803;51.048;4.686;2023-08-31T04:06:46;100950.50;;;11.22;100.00
44140;BME280;29803;51.048;4.686;2023-08-31T04:09:16;100958.88;;;11.19;100.00
44140;BME280;29803;51.048;4.686;2023-08-31T04:11:47;100956.19;;;11.19;100.00
44140;BME280;29803;51.048;4.686;2023-08-31T04:14:17;100959.56;;;11.12;100.00
44140;BME280;29803;51.048;4.686;2023-08-31T04:16:49;100959.03;;;11.09;100.00
44140;BME280;29803;51.048;4.686;2023-08-31T04:19:20;100960.22;;;11.06;100.00
44140;BME280;29803;51.048;4.686;2023-08-31T04:21:51;100957.88;;;11.03;100.00
44140;BME280;29803;51.048;4.686;2023-08-31T04:24:21;100964.25;;;11.02;100.00
44140;BME280;29803;51.048;4.686;2023-08-31T04:26:52;100968.97;;;11.00;100.00
44140;BME280;29803;51.048;4.686;2023-08-31T04:29:22;100967.25;;;10.99;100.00
44140;BME280;29803;51.048;4.686;2023-08-31T04:31:53;100971.97;;;11.05;100.00
44140;BME280;29803;51.048;4.686;2023-08-31T04:34:24;100967.97;;;11.09;100.00
44140;BME280;29803;51.048;4.686;2023-08-31T04:36:54;100976.00;;;11.18;100.00
44140;BME280;29803;51.048;4.686;2023-08-31T04:39:24;100977.03;;;11.25;100.00
44140;BME280;29803;51.048;4.686;2023-08-31T04:41:57;100981.03;;;11.29;100.00
44140;BME280;29803;51.048;4.686;2023-08-31T04:44:27;100979.88;;;11.31;100.00
44140;BME280;29803;51.048;4.686;2023-08-31T04:46:57;100981.22;;;11.35;100.00
44140;BME280;29803;51.048;4.686;2023-08-31T04:49:28;100978.53;;;11.35;100.00
44140;BME280;29803;51.048;4.686;2023-08-31T04:51:59;100989.28;;;11.35;100.00
44140;BME280;29803;51.048;4.686;2023-08-31T04:54:29;100985.59;;;11.36;100.00
44140;BME280;29803;51.048;4.686;2023-08-31T04:57:00;100984.75;;;11.36;100.00
44140;BME280;29803;51.048;4.686;2023-08-31T04:59:30;100979.53;;;11.43;100.00
44140;BME280;29803;51.048;4.686;2023-08-31T05:02:01;100976.66;;;11.44;100.00
44140;BME280;29803;51.048;4.686;2023-08-31T05:04:31;100983.75;;;11.45;100.00
44140;BME280;29803;51.048;4.686;2023-08-31T05:07:01;100984.22;;;11.49;100.00
44140;BME280;29803;51.048;4.686;2023-08-31T05:09:33;100988.75;;;11.48;100.00
44140;BME280;29803;51.048;4.686;2023-08-31T05:12:05;100986.25;;;11.47;100.00
44140;BME280;29803;51.048;4.686;2023-08-31T05:14:35;100996.16;;;11.46;100.00
44140;BME280;29803;51.048;4.686;2023-08-31T05:17:07;100992.63;;;11.46;100.00
44140;BME280;29803;51.048;4.686;2023-08-31T05:19:38;100996.16;;;11.46;100.00
44140;BME280;29803;51.048;4.686;2023-08-31T05:22:08;101004.19;;;11.54;100.00
44140;BME280;29803;51.048;4.686;2023-08-31T05:24:39;101005.06;;;11.55;100.00
44140;BME280;29803;51.048;4.686;2023-08-31T05:27:09;101001.84;;;11.59;100.00
44140;BME280;29803;51.048;4.686;2023-08-31T05:29:40;101014.78;;;11.64;100.00
44140;BME280;29803;51.048;4.686;2023-08-31T05:32:11;101010.25;;;11.64;100.00
44140;BME280;29803;51.048;4.686;2023-08-31T05:34:41;101019.16;;;11.65;100.00
44140;BME280;29803;51.048;4.686;2023-08-31T05:37:12;101016.47;;;11.65;100.00
44140;BME280;29803;51.048;4.686;2023-08-31T05:39:47;101019.00;;;11.66;100.00
44140;BME280;29803;51.048;4.686;2023-08-31T05:42:18;101019.16;;;11.65;100.00
44140;BME280;29803;51.048;4.686;2023-08-31T05:44:48;101018.16;;;11.66;100.00
44140;BME280;29803;51.048;4.686;2023-08-31T05:47:19;101022.00;;;11.72;100.00
44140;BME280;29803;51.048;4.686;2023-08-31T05:49:50;101020.84;;;11.82;100.00
44140;BME280;29803;51.048;4.686;2023-08-31T05:52:21;101019.28;;;12.12;100.00
44140;BME280;29803;51.048;4.686;2023-08-31T05:54:52;101021.81;;;12.61;100.00
44140;BME280;29803;51.048;4.686;2023-08-31T05:57:22;101026.25;;;13.08;100.00
44140;BME280;29803;51.048;4.686;2023-08-31T05:59:53;101021.72;;;13.55;100.00
44140;BME280;29803;51.048;4.686;2023-08-31T06:02:24;101026.09;;;13.93;100.00
44140;BME280;29803;51.048;4.686;2023-08-31T06:04:54;101022.59;;;14.22;100.00
44140;BME280;29803;51.048;4.686;2023-08-31T06:07:25;101030.75;;;14.73;100.00
44140;BME280;29803;51.048;4.686;2023-08-31T06:09:56;101032.75;;;15.01;100.00
44140;BME280;29803;51.048;4.686;2023-08-31T06:12:27;101029.44;;;15.42;100.00
44140;BME280;29803;51.048;4.686;2023-08-31T06:14:58;101032.16;;;15.42;100.00
44140;BME280;29803;51.048;4.686;2023-08-31T06:17:29;101032.56;;;15.45;100.00
44140;BME280;29803;51.048;4.686;2023-08-31T06:19:59;101032.03;;;15.71;100.00
44140;BME280;29803;51.048;4.686;2023-08-31T06:22:30;101033.28;;;15.75;100.00
44140;BME280;29803;51.048;4.686;2023-08-31T06:25:00;101037.81;;;15.96;100.00
44140;BME280;29803;51.048;4.686;2023-08-31T06:27:31;101048.25;;;16.27;100.00
44140;BME280;29803;51.048;4.686;2023-08-31T06:30:02;101046.28;;;16.49;100.00
44140;BME280;29803;51.048;4.686;2023-08-31T06:32:34;101042.75;;;16.49;100.00
44140;BME280;29803;51.048;4.686;2023-08-31T06:35:04;101049.41;;;16.88;100.00
44140;BME280;29803;51.048;4.686;2023-08-31T06:37:37;101042.41;;;17.13;100.00
44140;BME280;29803;51.048;4.686;2023-08-31T06:40:10;101045.13;;;17.26;100.00
44140;BME280;29803;51.048;4.686;2023-08-31T06:42:40;101044.34;;;17.32;100.00
44140;BME280;29803;51.048;4.686;2023-08-31T06:45:11;101045.34;;;17.31;100.00
44140;BME280;29803;51.048;4.686;2023-08-31T06:47:41;101052.28;;;17.54;100.00
44140;BME280;29803;51.048;4.686;2023-08-31T06:50:12;101052.91;;;17.56;100.00
44140;BME280;29803;51.048;4.686;2023-08-31T06:52:42;101063.38;;;17.72;100.00
44140;BME280;29803;51.048;4.686;2023-08-31T06:55:14;101056.28;;;17.91;100.00
44140;BME280;29803;51.048;4.686;2023-08-31T06:57:44;101056.25;;;18.31;100.00
44140;BME280;29803;51.048;4.686;2023-08-31T07:00:15;101050.97;;;18.49;100.00
44140;BME280;29803;51.048;4.686;2023-08-31T07:02:46;101056.16;;;18.71;100.00
44140;BME280;29803;51.048;4.686;2023-08-31T07:05:16;101058.25;;;18.75;100.00
44140;BME280;29803;51.048;4.686;2023-08-31T07:07:47;101055.25;;;18.90;100.00
44140;BME280;29803;51.048;4.686;2023-08-31T07:10:18;101054.66;;;18.81;100.00
44140;BME280;29803;51.048;4.686;2023-08-31T07:12:48;101061.56;;;18.77;100.00
44140;BME280;29803;51.048;4.686;2023-08-31T07:15:19;101060.19;;;18.42;100.00
44140;BME280;29803;51.048;4.686;2023-08-31T07:17:49;101069.53;;;18.66;100.00
44140;BME280;29803;51.048;4.686;2023-08-31T07:20:20;101059.06;;;18.76;100.00
44140;BME280;29803;51.048;4.686;2023-08-31T07:22:51;101059.63;;;18.91;100.00
44140;BME280;29803;51.048;4.686;2023-08-31T07:25:21;101068.69;;;19.23;100.00
44140;BME280;29803;51.048;4.686;2023-08-31T07:27:52;101060.31;;;19.25;100.00
44140;BME280;29803;51.048;4.686;2023-08-31T07:30:22;101064.06;;;19.62;100.00
44140;BME280;29803;51.048;4.686;2023-08-31T07:32:53;101069.31;;;19.63;100.00
44140;BME280;29803;51.048;4.686;2023-08-31T07:35:23;101065.34;;;19.84;100.00
44140;BME280;29803;51.048;4.686;2023-08-31T07:37:54;101064.31;;;19.85;100.00
44140;BME280;29803;51.048;4.686;2023-08-31T07:40:24;101071.22;;;20.06;100.00
44140;BME280;29803;51.048;4.686;2023-08-31T07:42:55;101067.78;;;19.92;100.00
44140;BME280;29803;51.048;4.686;2023-08-31T07:45:26;101072.69;;;20.09;100.00
44140;BME280;29803;51.048;4.686;2023-08-31T07:47:56;101069.34;;;20.07;100.00
44140;BME280;29803;51.048;4.686;2023-08-31T07:50:27;101078.00;;;20.22;100.00
44140;BME280;29803;51.048;4.686;2023-08-31T07:52:57;101075.41;;;20.09;100.00
44140;BME280;29803;51.048;4.686;2023-08-31T07:55:28;101073.00;;;20.19;100.00
44140;BME280;29803;51.048;4.686;2023-08-31T07:57:58;101079.25;;;20.44;100.00
44140;BME280;29803;51.048;4.686;2023-08-31T08:00:29;101082.84;;;20.82;100.00
44140;BME280;29803;51.048;4.686;2023-08-31T08:02:59;101084.44;;;20.71;100.00
44140;BME280;29803;51.048;4.686;2023-08-31T08:05:30;101072.59;;;20.40;100.00
44140;BME280;29803;51.048;4.686;2023-08-31T08:08:00;101082.25;;;20.36;100.00
44140;BME280;29803;51.048;4.686;2023-08-31T08:10:31;101080.97;;;20.64;100.00
44140;BME280;29803;51.048;4.686;2023-08-31T08:13:01;101088.28;;;20.82;100.00
44140;BME280;29803;51.048;4.686;2023-08-31T08:15:32;101086.41;;;20.82;100.00
44140;BME280;29803;51.048;4.686;2023-08-31T08:18:03;101081.94;;;20.69;100.00
44140;BME280;29803;51.048;4.686;2023-08-31T08:20:33;101090.31;;;20.68;100.00
44140;BME280;29803;51.048;4.686;2023-08-31T08:23:05;101092.91;;;20.63;100.00
44140;BME280;29803;51.048;4.686;2023-08-31T08:25:36;101096.72;;;20.80;100.00
44140;BME280;29803;51.048;4.686;2023-08-31T08:28:06;101104.59;;;20.70;100.00
44140;BME280;29803;51.048;4.686;2023-08-31T08:30:37;101100.16;;;21.24;100.00
44140;BME280;29803;51.048;4.686;2023-08-31T08:33:08;101097.88;;;21.03;100.00
44140;BME280;29803;51.048;4.686;2023-08-31T08:35:39;101094.16;;;21.15;100.00
44140;BME280;29803;51.048;4.686;2023-08-31T08:38:10;101108.28;;;20.94;100.00
44140;BME280;29803;51.048;4.686;2023-08-31T08:40:41;101112.16;;;21.05;100.00
44140;BME280;29803;51.048;4.686;2023-08-31T08:43:12;101116.38;;;21.01;100.00
44140;BME280;29803;51.048;4.686;2023-08-31T08:45:45;101113.06;;;21.47;100.00
44140;BME280;29803;51.048;4.686;2023-08-31T08:48:17;101114.91;;;21.65;100.00
44140;BME280;29803;51.048;4.686;2023-08-31T08:50:49;101117.72;;;21.58;100.00
44140;BME280;29803;51.048;4.686;2023-08-31T08:53:20;101116.91;;;21.58;100.00
44140;BME280;29803;51.048;4.686;2023-08-31T08:55:50;101127.69;;;21.53;100.00
44140;BME280;29803;51.048;4.686;2023-08-31T08:58:21;101120.59;;;21.63;100.00
44140;BME280;29803;51.048;4.686;2023-08-31T09:00:54;101120.03;;;21.73;100.00
44140;BME280;29803;51.048;4.686;2023-08-31T09:03:25;101124.91;;;21.83;100.00
44140;BME280;29803;51.048;4.686;2023-08-31T09:05:56;101125.25;;;22.16;100.00
44140;BME280;29803;51.048;4.686;2023-08-31T09:08:29;101124.69;;;22.49;100.00
44140;BME280;29803;51.048;4.686;2023-08-31T09:10:59;101128.47;;;21.83;100.00
44140;BME280;29803;51.048;4.686;2023-08-31T09:13:30;101118.94;;;22.04;100.00
44140;BME280;29803;51.048;4.686;2023-08-31T09:16:00;101134.06;;;22.42;100.00
44140;BME280;29803;51.048;4.686;2023-08-31T09:18:31;101129.31;;;22.26;100.00
44140;BME280;29803;51.048;4.686;2023-08-31T09:21:03;101129.91;;;22.39;100.00
44140;BME280;29803;51.048;4.686;2023-08-31T09:23:33;101129.56;;;22.24;100.00
44140;BME280;29803;51.048;4.686;2023-08-31T09:26:04;101134.44;;;22.45;100.00
44140;BME280;29803;51.048;4.686;2023-08-31T09:28:40;101133.34;;;22.35;100.00
44140;BME280;29803;51.048;4.686;2023-08-31T09:31:11;101139.06;;;22.57;100.00
44140;BME280;29803;51.048;4.686;2023-08-31T09:33:51;101130.00;;;22.21;100.00
44140;BME280;29803;51.048;4.686;2023-08-31T09:36:22;101135.84;;;22.25;100.00
44140;BME280;29803;51.048;4.686;2023-08-31T09:38:57;101134.25;;;22.05;100.00
44140;BME280;29803;51.048;4.686;2023-08-31T09:41:28;101143.72;;;21.91;100.00
44140;BME280;29803;51.048;4.686;2023-08-31T09:44:16;101137.88;;;22.29;100.00
44140;BME280;29803;51.048;4.686;2023-08-31T09:46:47;101128.94;;;22.57;100.00
44140;BME280;29803;51.048;4.686;2023-08-31T09:49:20;101131.69;;;22.57;100.00
44140;BME280;29803;51.048;4.686;2023-08-31T09:51:52;101123.13;;;22.65;100.00
44140;BME280;29803;51.048;4.686;2023-08-31T09:54:23;101134.88;;;22.42;100.00
44140;BME280;29803;51.048;4.686;2023-08-31T09:56:58;101126.81;;;22.59;100.00
44140;BME280;29803;51.048;4.686;2023-08-31T09:59:30;101117.25;;;22.85;100.00
44140;BME280;29803;51.048;4.686;2023-08-31T10:02:02;101121.13;;;23.24;100.00
44140;BME280;29803;51.048;4.686;2023-08-31T10:04:34;101130.84;;;22.33;100.00
44140;BME280;29803;51.048;4.686;2023-08-31T10:07:06;101128.81;;;22.17;100.00
44140;BME280;29803;51.048;4.686;2023-08-31T10:09:37;101122.28;;;22.18;100.00
44140;BME280;29803;51.048;4.686;2023-08-31T10:12:08;101121.63;;;21.92;100.00
44140;BME280;29803;51.048;4.686;2023-08-31T10:14:39;101125.41;;;21.91;100.00
44140;BME280;29803;51.048;4.686;2023-08-31T10:17:10;101119.75;;;22.05;100.00
44140;BME280;29803;51.048;4.686;2023-08-31T10:19:40;101122.84;;;21.55;100.00
44140;BME280;29803;51.048;4.686;2023-08-31T10:22:11;101123.59;;;21.73;100.00
44140;BME280;29803;51.048;4.686;2023-08-31T10:25:02;101129.19;;;21.79;100.00
44140;BME280;29803;51.048;4.686;2023-08-31T10:33:20;101127.69;;;21.53;100.00
44140;BME280;29803;51.048;4.686;2023-08-31T10:35:55;101121.75;;;21.97;100.00
44140;BME280;29803;51.048;4.686;2023-08-31T10:38:29;101121.09;;;22.26;100.00
44140;BME280;29803;51.048;4.686;2023-08-31T10:48:55;101140.22;;;21.72;100.00
44140;BME280;29803;51.048;4.686;2023-08-31T10:51:30;101131.59;;;21.45;100.00
44140;BME280;29803;51.048;4.686;2023-08-31T10:54:08;101136.06;;;21.39;100.00
44140;BME280;29803;51.048;4.686;2023-08-31T10:56:56;101130.63;;;21.39;100.00
44140;BME280;29803;51.048;4.686;2023-08-31T10:59:42;101124.78;;;21.36;100.00
44140;BME280;29803;51.048;4.686;2023-08-31T11:07:40;101124.34;;;21.02;100.00
44140;BME280;29803;51.048;4.686;2023-08-31T11:12:46;101115.84;;;21.10;100.00
44140;BME280;29803;51.048;4.686;2023-08-31T11:15:19;101112.00;;;21.48;100.00
44140;BME280;29803;51.048;4.686;2023-08-31T11:17:50;101119.47;;;21.83;100.00
44140;BME280;29803;51.048;4.686;2023-08-31T11:20:23;101107.38;;;21.90;100.00
44140;BME280;29803;51.048;4.686;2023-08-31T11:22:54;101105.22;;;21.92;100.00
44140;BME280;29803;51.048;4.686;2023-08-31T11:25:24;101111.44;;;22.00;100.00
44140;BME280;29803;51.048;4.686;2023-08-31T11:27:58;101107.38;;;22.02;100.00
44140;BME280;29803;51.048;4.686;2023-08-31T11:30:30;101106.84;;;22.23;100.00
44140;BME280;29803;51.048;4.686;2023-08-31T11:33:04;101099.56;;;21.94;100.00
44140;BME280;29803;51.048;4.686;2023-08-31T11:35:37;101088.59;;;21.82;100.00
44140;BME280;29803;51.048;4.686;2023-08-31T11:38:08;101099.00;;;21.73;100.00
44140;BME280;29803;51.048;4.686;2023-08-31T11:40:38;101092.28;;;21.88;100.00
44140;BME280;29803;51.048;4.686;2023-08-31T11:43:09;101101.66;;;21.80;100.00
44140;BME280;29803;51.048;4.686;2023-08-31T11:45:40;101092.94;;;22.13;100.00
44140;BME280;29803;51.048;4.686;2023-08-31T11:48:10;101098.28;;;22.32;100.00
44140;BME280;29803;51.048;4.686;2023-08-31T11:50:41;101099.47;;;22.47;100.00
44140;BME280;29803;51.048;4.686;2023-08-31T11:53:12;101103.28;;;22.35;100.00
44140;BME280;29803;51.048;4.686;2023-08-31T11:55:51;101097.41;;;21.96;100.00
44140;BME280;29803;51.048;4.686;2023-08-31T11:58:21;101102.81;;;21.72;100.00
44140;BME280;29803;51.048;4.686;2023-08-31T12:00:56;101102.28;;;21.94;100.00
44140;BME280;29803;51.048;4.686;2023-08-31T12:03:27;101106.00;;;22.11;100.00
44140;BME280;29803;51.048;4.686;2023-08-31T12:05:57;101104.09;;;22.12;100.00
44140;BME280;29803;51.048;4.686;2023-08-31T12:08:28;101096.50;;;22.14;100.00
44140;BME280;29803;51.048;4.686;2023-08-31T12:11:00;101096.44;;;21.90;100.00
44140;BME280;29803;51.048;4.686;2023-08-31T12:13:30;101098.22;;;21.85;100.00
44140;BME280;29803;51.048;4.686;2023-08-31T12:16:01;101103.56;;;21.91;100.00
44140;BME280;29803;51.048;4.686;2023-08-31T12:18:32;101099.47;;;22.12;100.00
44140;BME280;29803;51.048;4.686;2023-08-31T12:21:02;101103.06;;;22.25;100.00
44140;BME280;29803;51.048;4.686;2023-08-31T12:23:34;101104.47;;;22.27;100.00
44140;BME280;29803;51.048;4.686;2023-08-31T12:26:05;101100.78;;;22.21;100.00
44140;BME280;29803;51.048;4.686;2023-08-31T12:28:36;101103.38;;;22.28;100.00
44140;BME280;29803;51.048;4.686;2023-08-31T12:31:06;101098.53;;;22.42;100.00
44140;BME280;29803;51.048;4.686;2023-08-31T12:33:37;101101.38;;;22.47;100.00
44140;BME280;29803;51.048;4.686;2023-08-31T12:36:07;101098.41;;;22.60;100.00
44140;BME280;29803;51.048;4.686;2023-08-31T12:38:38;101095.69;;;22.37;100.00
44140;BME280;29803;51.048;4.686;2023-08-31T12:41:08;101090.88;;;21.85;100.00
44140;BME280;29803;51.048;4.686;2023-08-31T12:43:39;101094.72;;;21.54;100.00
44140;BME280;29803;51.048;4.686;2023-08-31T12:46:09;101102.66;;;21.56;100.00
44140;BME280;29803;51.048;4.686;2023-08-31T12:48:40;101101.00;;;21.55;100.00
44140;BME280;29803;51.048;4.686;2023-08-31T12:51:11;101089.03;;;21.67;100.00
44140;BME280;29803;51.048;4.686;2023-08-31T12:53:41;101097.34;;;21.61;100.00
44140;BME280;29803;51.048;4.686;2023-08-31T12:56:12;101103.13;;;21.53;100.00
44140;BME280;29803;51.048;4.686;2023-08-31T12:58:43;101099.06;;;21.25;100.00
44140;BME280;29803;51.048;4.686;2023-08-31T13:01:13;101094.69;;;21.24;100.00
44140;BME280;29803;51.048;4.686;2023-08-31T13:03:44;101099.91;;;21.26;100.00
44140;BME280;29803;51.048;4.686;2023-08-31T13:06:15;101094.75;;;21.17;100.00
44140;BME280;29803;51.048;4.686;2023-08-31T13:08:46;101097.88;;;21.03;100.00
44140;BME280;29803;51.048;4.686;2023-08-31T13:11:17;101097.69;;;21.04;100.00
44140;BME280;29803;51.048;4.686;2023-08-31T13:13:53;101099.00;;;21.13;100.00
44140;BME280;29803;51.048;4.686;2023-08-31T13:16:26;101102.03;;;21.24;100.00
44140;BME280;29803;51.048;4.686;2023-08-31T13:18:56;101095.13;;;21.21;100.00
44140;BME280;29803;51.048;4.686;2023-08-31T13:21:27;101088.75;;;21.27;100.00
44140;BME280;29803;51.048;4.686;2023-08-31T13:23:58;101087.34;;;21.06;100.00
44140;BME280;29803;51.048;4.686;2023-08-31T13:26:30;101090.69;;;21.08;100.00